Terminal Aerodrome Forecast
Issued by NWS Sterling, VA

Current Version | Previous Version | Text Only | Print | Product List | Glossary Off
Versions: 1 2 3 4 5 6 7 8 9 10 11 12 13 14 15 16 17 18 19 20

000
FTUS41 KLWX 221722
TAFDCA
TAF
KDCA 221722Z 2218/2318 34013G27KT P6SM FEW250
     FM222200 34011G19KT P6SM SKC
     FM230100 35009KT P6SM SKC
     FM230600 35005KT P6SM FEW250=

USA.gov is the U.S. government's official web portal to all federal, state and local government web resources and services.